createdAt,value
2019-03-08T00:02:42.998Z,8.6
2019-03-08T00:07:43.168Z,8.6
2019-03-08T00:12:28.259Z,8.6
2019-03-08T00:17:28.786Z,8.7
2019-03-08T00:22:27.182Z,8.7
2019-03-08T00:27:27.909Z,8.8
2019-03-08T00:32:28.123Z,8.8
2019-03-08T00:37:28.443Z,8.9
2019-03-08T00:42:27.543Z,8.9
2019-03-08T00:47:28.331Z,9.0
2019-03-08T00:52:29.167Z,9.0
2019-03-08T00:57:26.910Z,9.0
2019-03-08T01:02:27.391Z,9.0
2019-03-08T01:07:27.883Z,9.0
2019-03-08T01:12:27.240Z,9.0
2019-03-08T01:17:27.632Z,9.0
2019-03-08T01:22:27.534Z,8.9
2019-03-08T01:27:27.916Z,8.8
2019-03-08T01:32:27.784Z,8.8
2019-03-08T01:37:28.294Z,8.7
2019-03-08T01:42:27.514Z,8.6
2019-03-08T01:47:28.112Z,8.5
2019-03-08T01:52:28.159Z,8.4
2019-03-08T01:57:27.500Z,8.3
2019-03-08T02:02:27.821Z,8.1
2019-03-08T02:07:29.179Z,8.0
2019-03-08T02:12:27.957Z,7.9
2019-03-08T02:17:27.834Z,7.8
2019-03-08T02:22:27.333Z,7.7
2019-03-08T02:27:28.131Z,7.6
2019-03-08T02:32:28.522Z,7.6
2019-03-08T02:37:28.077Z,7.5
2019-03-08T02:42:27.294Z,7.5
2019-03-08T02:47:28.409Z,7.5
2019-03-08T02:52:27.460Z,7.4
2019-03-08T02:57:27.933Z,7.3
2019-03-08T03:02:27.835Z,7.3
2019-03-08T03:07:27.444Z,7.3
2019-03-08T03:12:27.907Z,7.3
2019-03-08T03:17:27.909Z,7.3
2019-03-08T03:22:27.952Z,7.3
2019-03-08T03:27:28.558Z,7.4
2019-03-08T03:32:27.359Z,7.4
2019-03-08T03:37:28.111Z,7.5
2019-03-08T03:42:27.427Z,7.5
2019-03-08T03:47:27.657Z,7.6
2019-03-08T03:52:27.047Z,7.5
2019-03-08T03:57:28.376Z,7.6
2019-03-08T04:02:27.398Z,7.6
2019-03-08T04:07:27.693Z,7.7
2019-03-08T04:12:27.678Z,7.7
2019-03-08T04:17:27.424Z,7.7
2019-03-08T04:22:27.851Z,7.7
2019-03-08T04:27:28.236Z,7.5
2019-03-08T04:32:27.792Z,7.5
2019-03-08T04:37:28.508Z,7.0
2019-03-08T04:42:27.341Z,6.8
2019-03-08T04:47:27.823Z,6.6
2019-03-08T04:52:28.107Z,6.5
2019-03-08T04:57:27.334Z,6.5
2019-03-08T05:02:28.027Z,6.3
2019-03-08T05:07:27.967Z,6.2
2019-03-08T05:12:28.105Z,6.2
2019-03-08T05:17:27.933Z,6.1
2019-03-08T05:22:27.763Z,6.2
2019-03-08T05:27:28.325Z,6.2
2019-03-08T05:32:28.520Z,6.2
2019-03-08T05:37:29.393Z,6.2
2019-03-08T05:42:28.762Z,6.2
2019-03-08T05:47:28.284Z,6.3
2019-03-08T05:52:27.536Z,6.3
2019-03-08T05:57:28.300Z,6.3
2019-03-08T06:02:27.991Z,6.4
2019-03-08T06:07:28.272Z,6.4
2019-03-08T06:12:28.016Z,6.4
2019-03-08T06:17:28.787Z,6.4
2019-03-08T06:22:27.565Z,6.6
2019-03-08T06:27:28.159Z,6.6
2019-03-08T06:32:30.021Z,6.6
2019-03-08T06:37:28.218Z,6.6
2019-03-08T06:42:29.329Z,6.7
2019-03-08T06:47:29.688Z,6.6
2019-03-08T06:52:28.153Z,6.9
2019-03-08T06:57:27.953Z,7.1
2019-03-08T07:02:30.175Z,7.1
2019-03-08T07:07:28.182Z,7.3
2019-03-08T07:12:28.492Z,7.3
2019-03-08T07:17:28.818Z,7.4
2019-03-08T07:22:28.140Z,7.7
2019-03-08T07:27:28.726Z,8.0
2019-03-08T07:32:28.969Z,8.3
2019-03-08T07:37:28.246Z,8.6
2019-03-08T07:42:28.517Z,8.7
2019-03-08T07:47:28.751Z,8.5
2019-03-08T07:52:28.206Z,8.5
2019-03-08T07:57:28.135Z,8.6
2019-03-08T08:02:29.040Z,9.1
2019-03-08T08:07:29.783Z,9.2
2019-03-08T08:12:28.892Z,9.1
2019-03-08T08:17:29.220Z,9.2
2019-03-08T08:22:28.620Z,9.5
2019-03-08T08:27:28.232Z,9.4
2019-03-08T08:32:27.757Z,9.4
2019-03-08T08:37:29.962Z,9.2
2019-03-08T08:42:30.765Z,9.2
2019-03-08T08:47:32.953Z,9.2
2019-03-08T08:52:53.818Z,9.2
2019-03-08T08:57:28.986Z,9.4
2019-03-08T09:02:29.137Z,9.6
2019-03-08T09:07:30.059Z,9.9
2019-03-08T09:14:08.414Z,10.5
2019-03-08T09:17:28.797Z,10.4
2019-03-08T09:22:30.893Z,10.5
2019-03-08T09:27:28.384Z,10.3
2019-03-08T09:32:27.735Z,10.4
2019-03-08T09:37:28.475Z,10.9
2019-03-08T09:42:28.862Z,11.5
2019-03-08T09:47:27.736Z,11.4
2019-03-08T09:52:27.917Z,11.9
2019-03-08T09:57:27.948Z,11.9
2019-03-08T10:02:27.686Z,11.9
2019-03-08T10:07:28.466Z,12.0
2019-03-08T10:12:29.397Z,12.0
2019-03-08T10:17:28.356Z,12.2
2019-03-08T10:22:28.715Z,12.1
2019-03-08T10:27:35.070Z,11.8
2019-03-08T10:32:36.983Z,11.7
2019-03-08T10:37:29.338Z,12.0
2019-03-08T10:42:28.043Z,12.1
2019-03-08T10:47:28.780Z,12.3
2019-03-08T10:52:27.781Z,12.2
2019-03-08T10:57:28.006Z,12.2
2019-03-08T11:02:28.791Z,12.3
2019-03-08T11:07:28.580Z,12.3
2019-03-08T11:12:28.383Z,12.4
2019-03-08T11:17:28.668Z,12.5
2019-03-08T11:22:28.360Z,12.9
2019-03-08T11:27:28.179Z,13.2
2019-03-08T11:32:28.309Z,13.0
2019-03-08T11:37:28.511Z,12.7
2019-03-08T11:42:29.471Z,12.4
2019-03-08T11:47:29.502Z,12.1
2019-03-08T11:52:28.492Z,11.9
2019-03-08T11:57:28.556Z,11.7
2019-03-08T12:02:37.290Z,11.5
2019-03-08T12:07:27.870Z,11.9
2019-03-08T12:12:28.243Z,12.2
2019-03-08T12:17:29.385Z,12.3
2019-03-08T12:22:28.607Z,12.3
2019-03-08T12:27:28.089Z,12.5
2019-03-08T12:32:28.507Z,13.3
2019-03-08T12:37:28.100Z,13.1
2019-03-08T12:42:28.184Z,13.0
2019-03-08T12:47:28.449Z,12.6
2019-03-08T12:52:27.958Z,12.7
2019-03-08T12:57:28.068Z,12.7
2019-03-08T13:02:28.913Z,12.7
2019-03-08T13:07:29.108Z,12.6
2019-03-08T13:12:28.272Z,12.6
2019-03-08T13:17:28.399Z,12.9
2019-03-08T13:22:29.057Z,13.2
2019-03-08T13:27:28.655Z,13.5
2019-03-08T13:32:28.373Z,13.8
2019-03-08T13:37:28.494Z,13.9
2019-03-08T13:42:28.691Z,13.8
2019-03-08T13:47:28.475Z,13.8
2019-03-08T13:52:28.501Z,14.0
2019-03-08T13:57:28.738Z,14.4
2019-03-08T14:02:28.348Z,14.4
2019-03-08T14:07:28.157Z,14.9
2019-03-08T14:12:29.102Z,14.9
2019-03-08T14:17:28.082Z,15.3
2019-03-08T14:22:30.561Z,15.7
2019-03-08T14:27:29.112Z,16.3
2019-03-08T14:32:28.221Z,16.3
2019-03-08T14:37:28.368Z,17.3
2019-03-08T14:42:28.949Z,18.5
2019-03-08T14:47:29.252Z,19.4
2019-03-08T14:52:28.734Z,22.0
2019-03-08T14:57:28.531Z,22.0
2019-03-08T15:02:29.908Z,23.1
2019-03-08T15:07:28.459Z,24.3
2019-03-08T15:12:32.925Z,24.8
2019-03-08T15:17:29.178Z,25.7
2019-03-08T15:22:28.809Z,20.1
2019-03-08T15:27:28.828Z,20.0
2019-03-08T15:32:28.331Z,16.9
2019-03-08T15:37:29.719Z,18.3
2019-03-08T15:42:28.189Z,21.4
2019-03-08T15:47:28.531Z,22.6
2019-03-08T15:52:28.268Z,18.0
2019-03-08T15:57:28.841Z,15.5
2019-03-08T16:02:28.263Z,14.4
2019-03-08T16:07:28.309Z,18.9
2019-03-08T16:12:28.223Z,22.3
2019-03-08T16:17:28.297Z,21.5
2019-03-08T16:22:29.797Z,21.5
2019-03-08T16:27:28.797Z,17.7
2019-03-08T16:32:28.334Z,15.2
2019-03-08T16:37:27.457Z,13.9
2019-03-08T16:42:29.339Z,13.3
2019-03-08T16:47:28.867Z,16.3
2019-03-08T16:52:27.576Z,15.5
2019-03-08T16:57:27.969Z,13.8
2019-03-08T17:02:28.182Z,12.9
2019-03-08T17:07:28.922Z,12.3
2019-03-08T17:12:28.929Z,11.8
2019-03-08T17:17:29.029Z,11.3
2019-03-08T17:22:28.623Z,11.0
2019-03-08T17:27:27.792Z,10.7
2019-03-08T17:32:28.267Z,10.2
2019-03-08T17:37:28.076Z,10.2
2019-03-08T17:42:29.729Z,9.8
2019-03-08T17:47:28.820Z,9.6
2019-03-08T17:52:27.666Z,9.6
2019-03-08T17:57:27.811Z,9.5
2019-03-08T18:02:28.320Z,9.4
2019-03-08T18:07:28.394Z,9.2
2019-03-08T18:12:27.786Z,9.1
2019-03-08T18:17:27.831Z,9.1
2019-03-08T18:22:27.433Z,9.1
2019-03-08T18:27:27.988Z,9.0
2019-03-08T18:32:27.327Z,9.0
2019-03-08T18:37:28.582Z,8.8
2019-03-08T18:42:28.267Z,8.7
2019-03-08T18:47:27.852Z,8.5
2019-03-08T18:52:27.607Z,8.3
2019-03-08T18:57:27.312Z,8.2
2019-03-08T19:02:27.827Z,8.2
2019-03-08T19:07:28.416Z,8.1
2019-03-08T19:12:28.465Z,8.2
2019-03-08T19:17:28.794Z,8.1
2019-03-08T19:22:27.936Z,8.2
2019-03-08T19:27:27.905Z,8.1
2019-03-08T19:32:28.140Z,8.1
2019-03-08T19:37:28.052Z,8.0
2019-03-08T19:42:27.799Z,7.9
2019-03-08T19:47:27.919Z,7.8
2019-03-08T19:52:28.033Z,7.7
2019-03-08T19:57:27.557Z,7.6
2019-03-08T20:02:28.499Z,7.5
2019-03-08T20:07:28.129Z,7.5
2019-03-08T20:12:27.169Z,7.6
2019-03-08T20:17:28.245Z,7.5
2019-03-08T20:22:28.129Z,7.5
2019-03-08T20:27:27.822Z,7.4
2019-03-08T20:32:28.275Z,7.3
2019-03-08T20:37:28.402Z,7.2
2019-03-08T20:42:28.356Z,7.1
2019-03-08T20:47:28.222Z,7.1
2019-03-08T20:52:27.391Z,7.0
2019-03-08T20:57:28.215Z,7.0
2019-03-08T21:02:27.324Z,6.9
2019-03-08T21:07:27.922Z,6.9
2019-03-08T21:12:28.155Z,6.9
2019-03-08T21:17:28.401Z,6.9
2019-03-08T21:22:28.012Z,6.8
2019-03-08T21:27:28.697Z,6.8
2019-03-08T21:32:28.244Z,6.7
2019-03-08T21:37:27.855Z,6.8
2019-03-08T21:42:28.376Z,6.8
2019-03-08T21:47:28.126Z,6.8
2019-03-08T21:52:27.857Z,6.8
2019-03-08T21:57:27.474Z,6.9
2019-03-08T22:02:28.366Z,6.8
2019-03-08T22:07:28.073Z,6.8
2019-03-08T22:12:27.431Z,6.8
2019-03-08T22:17:28.243Z,6.8
2019-03-08T22:22:27.641Z,6.7
2019-03-08T22:27:28.619Z,6.8
2019-03-08T22:32:28.125Z,6.9
2019-03-08T22:37:28.572Z,7.0
2019-03-08T22:42:28.303Z,7.0
2019-03-08T22:47:27.721Z,7.1
2019-03-08T22:52:28.661Z,7.2
2019-03-08T22:57:27.964Z,7.3
2019-03-08T23:02:27.946Z,7.4
2019-03-08T23:07:28.028Z,7.5
2019-03-08T23:12:27.260Z,7.7
2019-03-08T23:23:04.948Z,7.8
2019-03-08T23:28:05.589Z,7.8
2019-03-08T23:33:04.754Z,8.0
2019-03-08T23:38:03.790Z,8.1
2019-03-08T23:43:04.446Z,8.1
2019-03-08T23:48:05.171Z,8.2
2019-03-08T23:53:03.995Z,8.2
2019-03-08T23:58:03.784Z,8.3
